createdAt,value
2023-04-15T00:01:08.183Z,12.56
2023-04-15T00:03:35.598Z,12.10
2023-04-15T00:06:02.528Z,12.21
2023-04-15T00:08:30.167Z,12.45
2023-04-15T00:10:56.891Z,12.49
2023-04-15T00:13:23.752Z,12.43
2023-04-15T00:15:50.337Z,11.77
2023-04-15T00:18:16.986Z,12.10
2023-04-15T00:20:43.623Z,12.52
2023-04-15T00:23:10.235Z,12.49
2023-04-15T00:25:36.844Z,12.27
2023-04-15T00:28:04.211Z,12.60
2023-04-15T00:30:31.666Z,12.73
2023-04-15T00:32:58.380Z,12.01
2023-04-15T00:35:25.544Z,12.63
2023-04-15T00:37:52.123Z,12.57
2023-04-15T00:40:21.794Z,12.66
2023-04-15T00:42:48.430Z,12.72
2023-04-15T00:45:15.686Z,12.62
2023-04-15T00:47:43.950Z,12.52
2023-04-15T00:50:12.602Z,11.99
2023-04-15T00:52:40.121Z,12.51
2023-04-15T00:55:07.582Z,12.59
2023-04-15T00:57:35.290Z,12.60
2023-04-15T01:00:02.661Z,12.61
2023-04-15T01:02:29.413Z,12.53
2023-04-15T01:04:56.824Z,12.41
2023-04-15T01:07:23.523Z,12.27
2023-04-15T01:09:50.270Z,12.28
2023-04-15T01:12:17.870Z,12.37
2023-04-15T01:14:44.700Z,12.49
2023-04-15T01:17:11.353Z,12.48
2023-04-15T01:19:38.393Z,12.13
2023-04-15T01:22:05.669Z,12.49
2023-04-15T01:24:36.018Z,12.16
2023-04-15T01:27:03.500Z,12.46
2023-04-15T01:29:32.658Z,12.44
2023-04-15T01:31:59.464Z,12.42
2023-04-15T01:34:26.390Z,12.36
2023-04-15T01:36:53.040Z,12.34
2023-04-15T01:39:19.676Z,12.35
2023-04-15T01:41:46.239Z,12.17
2023-04-15T01:44:12.869Z,12.07
2023-04-15T01:46:39.449Z,12.16
2023-04-15T01:49:06.530Z,12.43
2023-04-15T01:51:33.252Z,12.38
2023-04-15T01:54:00.047Z,12.09
2023-04-15T01:56:26.844Z,11.97
2023-04-15T01:58:53.735Z,12.25
2023-04-15T02:01:20.909Z,12.24
2023-04-15T02:03:48.111Z,12.27
2023-04-15T02:06:15.383Z,12.01
2023-04-15T02:08:42.071Z,12.19
2023-04-15T02:11:09.412Z,12.24
2023-04-15T02:13:36.370Z,12.22
2023-04-15T02:16:03.513Z,12.16
2023-04-15T02:18:30.623Z,12.22
2023-04-15T02:20:58.840Z,12.24
2023-04-15T02:23:25.844Z,12.30
2023-04-15T02:25:53.458Z,12.25
2023-04-15T02:28:21.196Z,12.28
2023-04-15T02:30:52.762Z,12.24
2023-04-15T02:33:20.330Z,12.15
2023-04-15T02:35:47.482Z,12.10
2023-04-15T02:38:18.045Z,12.12
2023-04-15T02:40:44.688Z,11.46
2023-04-15T02:43:11.657Z,11.94
2023-04-15T02:45:38.249Z,12.20
2023-04-15T02:48:06.698Z,12.01
2023-04-15T02:50:33.507Z,12.26
2023-04-15T02:53:01.669Z,11.92
2023-04-15T02:55:28.994Z,11.72
2023-04-15T02:57:55.882Z,11.38
2023-04-15T03:00:25.297Z,11.37
2023-04-15T03:02:56.798Z,11.24
2023-04-15T03:05:26.279Z,11.44
2023-04-15T03:07:53.407Z,11.59
2023-04-15T03:10:20.316Z,11.68
2023-04-15T03:12:47.206Z,11.75
2023-04-15T03:15:14.087Z,11.80
2023-04-15T03:17:40.836Z,11.43
2023-04-15T03:20:07.767Z,11.97
2023-04-15T03:22:34.467Z,12.06
2023-04-15T03:25:01.146Z,12.20
2023-04-15T03:27:27.846Z,11.79
2023-04-15T03:29:54.422Z,11.99
2023-04-15T03:32:21.130Z,11.85
2023-04-15T03:34:47.818Z,11.86
2023-04-15T03:37:14.454Z,11.65
2023-04-15T03:39:41.800Z,11.95
2023-04-15T03:42:08.422Z,12.05
2023-04-15T03:44:35.050Z,11.68
2023-04-15T03:47:01.907Z,12.07
2023-04-15T03:49:28.641Z,12.13
2023-04-15T03:51:55.568Z,11.30
2023-04-15T03:54:22.195Z,12.10
2023-04-15T03:56:48.761Z,12.17
2023-04-15T03:59:15.531Z,11.84
2023-04-15T04:01:42.147Z,12.23
2023-04-15T04:04:09.308Z,11.06
2023-04-15T04:06:36.020Z,11.89
2023-04-15T04:09:03.098Z,12.24
2023-04-15T04:11:29.893Z,11.92
2023-04-15T04:13:56.606Z,12.10
2023-04-15T04:16:23.315Z,12.27
2023-04-15T04:18:50.090Z,12.35
2023-04-15T04:21:17.091Z,12.31
2023-04-15T04:23:43.759Z,12.23
2023-04-15T04:26:10.562Z,11.98
2023-04-15T04:28:37.317Z,11.48
2023-04-15T04:31:03.928Z,11.45
2023-04-15T04:33:30.638Z,10.83
2023-04-15T04:35:57.264Z,10.86
2023-04-15T04:38:23.878Z,10.56
2023-04-15T04:40:50.783Z,11.45
2023-04-15T04:43:17.436Z,11.60
2023-04-15T04:45:44.173Z,11.65
2023-04-15T04:48:10.927Z,11.50
2023-04-15T04:50:37.536Z,11.57
2023-04-15T04:53:04.132Z,10.77
2023-04-15T04:55:31.991Z,11.64
2023-04-15T04:57:58.591Z,11.44
2023-04-15T05:00:25.455Z,11.84
2023-04-15T05:02:52.313Z,11.26
2023-04-15T05:05:19.162Z,11.75
2023-04-15T05:07:46.105Z,11.60
2023-04-15T05:10:13.056Z,11.80
2023-04-15T05:12:39.684Z,12.16
2023-04-15T05:15:07.022Z,12.23
2023-04-15T05:17:35.316Z,12.18
2023-04-15T05:20:03.076Z,12.10
2023-04-15T05:22:29.805Z,12.13
2023-04-15T05:24:56.452Z,12.40
2023-04-15T05:27:24.102Z,12.43
2023-04-15T05:29:50.684Z,12.51
2023-04-15T05:32:17.533Z,12.24
2023-04-15T05:34:44.144Z,12.73
2023-04-15T05:37:10.995Z,12.88
2023-04-15T05:39:37.607Z,13.03
2023-04-15T05:42:06.007Z,13.00
2023-04-15T05:44:32.938Z,13.22
2023-04-15T05:46:59.659Z,13.38
2023-04-15T05:49:26.296Z,14.06
2023-04-15T05:51:52.973Z,14.07
2023-04-15T05:54:20.350Z,14.86
2023-04-15T05:56:47.095Z,15.10
2023-04-15T05:59:13.772Z,14.84
2023-04-15T06:01:40.700Z,14.70
2023-04-15T06:04:07.387Z,15.03
2023-04-15T06:06:34.681Z,15.27
2023-04-15T06:09:01.520Z,14.96
2023-04-15T06:11:28.379Z,15.37
2023-04-15T06:13:54.952Z,15.45
2023-04-15T06:16:21.990Z,15.18
2023-04-15T06:18:48.877Z,15.29
2023-04-15T06:21:16.014Z,15.47
2023-04-15T06:23:42.888Z,15.38
2023-04-15T06:26:09.488Z,15.18
2023-04-15T06:28:36.206Z,15.40
2023-04-15T06:31:03.537Z,15.19
2023-04-15T06:33:30.151Z,15.57
2023-04-15T06:35:56.928Z,15.58
2023-04-15T06:38:23.533Z,15.61
2023-04-15T06:40:50.524Z,14.94
2023-04-15T06:43:17.122Z,15.66
2023-04-15T06:45:43.825Z,15.84
2023-04-15T06:48:10.397Z,15.89
2023-04-15T06:50:36.967Z,15.97
2023-04-15T06:53:03.531Z,16.22
2023-04-15T06:55:31.635Z,16.02
2023-04-15T06:57:58.285Z,16.22
2023-04-15T07:00:25.529Z,16.39
2023-04-15T07:02:52.834Z,16.34
2023-04-15T07:05:20.167Z,16.20
2023-04-15T07:07:46.882Z,16.13
2023-04-15T07:10:15.011Z,16.30
2023-04-15T07:12:42.997Z,16.74
2023-04-15T07:15:10.066Z,16.34
2023-04-15T07:17:37.187Z,16.72
2023-04-15T07:20:05.031Z,16.68
2023-04-15T07:22:31.723Z,17.01
2023-04-15T07:24:58.394Z,16.97
2023-04-15T07:27:25.041Z,16.91
2023-04-15T07:29:52.319Z,17.36
2023-04-15T07:32:19.595Z,17.21
2023-04-15T07:34:46.417Z,17.35
2023-04-15T07:37:13.669Z,17.46
2023-04-15T07:39:40.387Z,17.82
2023-04-15T07:42:07.019Z,17.65
2023-04-15T07:44:33.627Z,17.67
2023-04-15T07:47:00.566Z,17.85
2023-04-15T07:49:27.176Z,18.48
2023-04-15T07:51:53.801Z,18.73
2023-04-15T07:54:20.882Z,18.06
2023-04-15T07:56:47.436Z,18.96
2023-04-15T07:59:17.811Z,18.73
2023-04-15T08:01:45.111Z,18.43
2023-04-15T08:04:11.990Z,18.61
2023-04-15T08:06:40.094Z,18.85
2023-04-15T08:09:08.247Z,18.94
2023-04-15T08:11:34.986Z,19.23
2023-04-15T08:14:01.864Z,19.43
2023-04-15T08:16:28.708Z,19.67
2023-04-15T08:18:56.533Z,19.55
2023-04-15T08:21:23.981Z,19.74
2023-04-15T08:23:52.232Z,19.86
2023-04-15T08:26:21.159Z,20.03
2023-04-15T08:28:48.928Z,19.34
2023-04-15T08:31:18.094Z,19.16
2023-04-15T08:33:44.852Z,19.37
2023-04-15T08:36:11.618Z,19.64
2023-04-15T08:38:38.217Z,18.97
2023-04-15T08:41:23.407Z,17.40
2023-04-15T08:43:57.964Z,16.37
2023-04-15T08:46:24.924Z,16.24
2023-04-15T08:48:52.501Z,15.58
2023-04-15T08:51:19.939Z,15.68
2023-04-15T08:53:47.551Z,15.66
2023-04-15T08:56:19.103Z,15.82
2023-04-15T08:58:46.826Z,15.39
2023-04-15T09:01:13.682Z,15.94
2023-04-15T09:03:40.941Z,15.22
2023-04-15T09:06:07.710Z,15.31
2023-04-15T09:08:37.202Z,15.34
2023-04-15T09:11:04.181Z,15.17
2023-04-15T09:13:31.639Z,15.78
2023-04-15T09:15:58.723Z,15.53
2023-04-15T09:18:33.506Z,15.21
2023-04-15T09:21:14.890Z,14.44
2023-04-15T09:23:54.359Z,15.48
2023-04-15T09:26:40.424Z,13.94
2023-04-15T09:29:09.512Z,16.21
2023-04-15T09:31:37.650Z,16.51
2023-04-15T09:34:04.721Z,16.94
2023-04-15T09:36:51.833Z,17.76
2023-04-15T09:39:18.516Z,18.22
2023-04-15T09:41:45.245Z,18.75
2023-04-15T09:44:25.374Z,19.01
2023-04-15T09:46:51.996Z,18.86
2023-04-15T09:49:19.551Z,18.88
2023-04-15T09:51:57.645Z,19.41
2023-04-15T09:54:36.572Z,19.63
2023-04-15T09:57:10.485Z,19.98
2023-04-15T09:59:37.398Z,18.72
2023-04-15T10:02:07.733Z,18.73
2023-04-15T10:04:37.479Z,18.81
2023-04-15T10:07:06.284Z,18.25
2023-04-15T10:09:34.886Z,18.58
2023-04-15T10:12:04.253Z,17.52
2023-04-15T10:14:34.629Z,18.00
2023-04-15T10:17:05.824Z,18.37
2023-04-15T10:19:36.621Z,18.43
2023-04-15T10:22:04.127Z,18.51
2023-04-15T10:24:34.315Z,18.69
2023-04-15T10:27:04.171Z,18.03
2023-04-15T10:29:31.405Z,19.09
2023-04-15T10:32:00.023Z,18.93
2023-04-15T10:34:27.636Z,19.78
2023-04-15T10:37:03.709Z,20.65
2023-04-15T10:39:36.795Z,20.68
2023-04-15T10:42:18.211Z,21.51
2023-04-15T10:44:52.464Z,20.47
2023-04-15T10:47:21.596Z,20.71
2023-04-15T10:50:01.087Z,19.47
2023-04-15T10:52:29.455Z,19.58
2023-04-15T10:55:26.378Z,19.42
2023-04-15T10:58:01.087Z,19.78
2023-04-15T11:00:32.673Z,20.44
2023-04-15T11:03:06.332Z,21.04
2023-04-15T11:05:42.031Z,21.35
2023-04-15T11:08:10.057Z,21.55
2023-04-15T11:10:36.705Z,21.85
2023-04-15T11:13:17.465Z,21.58
2023-04-15T11:15:45.699Z,21.74
2023-04-15T11:18:12.609Z,21.17
2023-04-15T11:20:40.961Z,20.56
2023-04-15T11:23:15.275Z,20.68
2023-04-15T11:25:43.510Z,21.37
2023-04-15T11:28:11.533Z,21.30
2023-04-15T11:30:40.092Z,21.83
2023-04-15T11:33:14.752Z,21.62
2023-04-15T11:35:42.588Z,22.09
2023-04-15T11:38:12.001Z,22.48
2023-04-15T11:40:38.895Z,22.57
2023-04-15T11:43:13.709Z,22.22
2023-04-15T11:46:01.073Z,21.83
2023-04-15T11:48:33.775Z,22.56
2023-04-15T11:51:07.869Z,22.97
2023-04-15T11:53:50.861Z,23.15
2023-04-15T11:56:22.586Z,23.09
2023-04-15T11:58:53.311Z,23.03
2023-04-15T12:01:20.151Z,23.27
2023-04-15T12:03:48.397Z,23.41
2023-04-15T12:06:19.206Z,23.58
2023-04-15T12:09:04.748Z,23.67
2023-04-15T12:11:34.121Z,23.39
2023-04-15T12:14:09.648Z,23.13
2023-04-15T12:16:48.437Z,22.85
2023-04-15T12:19:36.095Z,22.16
2023-04-15T12:22:13.934Z,22.00
2023-04-15T12:24:49.568Z,21.96
2023-04-15T12:27:17.090Z,21.87
2023-04-15T12:29:44.005Z,22.11
2023-04-15T12:32:11.696Z,21.72
2023-04-15T12:34:41.064Z,21.85
2023-04-15T12:37:09.915Z,21.17
2023-04-15T12:39:41.556Z,21.46
2023-04-15T12:42:09.239Z,21.47
2023-04-15T12:44:36.718Z,21.32
2023-04-15T12:47:03.871Z,21.50
2023-04-15T12:49:32.659Z,21.76
2023-04-15T12:52:01.353Z,21.34
2023-04-15T12:54:31.805Z,21.23
2023-04-15T12:56:59.742Z,20.67
2023-04-15T12:59:26.755Z,18.79
2023-04-15T13:01:53.935Z,20.36
2023-04-15T13:04:22.026Z,20.58
2023-04-15T13:06:48.937Z,20.77
2023-04-15T13:09:15.846Z,21.44
2023-04-15T13:11:42.600Z,21.35
2023-04-15T13:14:11.699Z,20.85
2023-04-15T13:16:38.925Z,20.13
2023-04-15T13:19:05.710Z,19.96
2023-04-15T13:21:35.753Z,19.78
2023-04-15T13:24:04.054Z,19.98
2023-04-15T13:26:31.708Z,19.88
2023-04-15T13:28:58.556Z,19.62
2023-04-15T13:31:25.661Z,19.92
2023-04-15T13:33:52.331Z,18.22
2023-04-15T13:36:18.988Z,19.41
2023-04-15T13:38:45.793Z,19.78
2023-04-15T13:41:12.428Z,19.62
2023-04-15T13:43:39.007Z,19.39
2023-04-15T13:46:05.861Z,19.52
2023-04-15T13:48:32.455Z,19.69
2023-04-15T13:50:59.027Z,20.05
2023-04-15T13:53:33.907Z,20.08
2023-04-15T13:56:06.284Z,19.96
2023-04-15T13:58:32.919Z,19.58
2023-04-15T14:00:59.557Z,20.77
2023-04-15T14:03:26.358Z,22.45
2023-04-15T14:05:56.138Z,23.30
2023-04-15T14:08:23.380Z,23.57
2023-04-15T14:10:50.075Z,23.47
2023-04-15T14:13:16.770Z,22.06
2023-04-15T14:15:43.352Z,21.80
2023-04-15T14:18:09.916Z,20.78
2023-04-15T14:20:36.476Z,21.56
2023-04-15T14:23:03.082Z,21.52
2023-04-15T14:25:33.677Z,21.37
2023-04-15T14:28:01.694Z,21.59
2023-04-15T14:30:28.392Z,21.61
2023-04-15T14:32:55.139Z,21.80
2023-04-15T14:35:21.856Z,21.91
2023-04-15T14:37:48.527Z,21.36
2023-04-15T14:40:15.397Z,21.79
2023-04-15T14:42:42.022Z,21.82
2023-04-15T14:45:09.317Z,21.51
2023-04-15T14:47:36.010Z,21.44
2023-04-15T14:50:02.861Z,21.36
2023-04-15T14:52:33.165Z,21.24
2023-04-15T14:54:59.762Z,21.30
2023-04-15T14:57:26.290Z,21.28
2023-04-15T14:59:56.718Z,21.16
2023-04-15T15:02:37.553Z,21.04
2023-04-15T15:05:06.638Z,20.77
2023-04-15T15:07:33.456Z,20.74
2023-04-15T15:10:00.308Z,20.84
2023-04-15T15:12:26.934Z,19.90
2023-04-15T15:14:55.717Z,20.64
2023-04-15T15:17:22.310Z,19.80
2023-04-15T15:19:49.023Z,20.57
2023-04-15T15:22:15.693Z,19.80
2023-04-15T15:24:42.403Z,20.41
2023-04-15T15:27:09.000Z,20.54
2023-04-15T15:29:35.789Z,20.40
2023-04-15T15:32:02.604Z,20.46
2023-04-15T15:34:32.172Z,20.26
2023-04-15T15:36:58.845Z,20.17
2023-04-15T15:39:25.617Z,20.36
2023-04-15T15:41:52.449Z,20.15
2023-04-15T15:44:19.010Z,20.05
2023-04-15T15:46:45.724Z,20.30
2023-04-15T15:49:13.884Z,20.26
2023-04-15T15:51:40.597Z,20.32
2023-04-15T15:54:07.275Z,20.27
2023-04-15T15:56:35.110Z,20.08
2023-04-15T15:59:01.706Z,20.04
2023-04-15T16:01:28.448Z,20.19
2023-04-15T16:03:55.450Z,20.25
2023-04-15T16:06:22.209Z,20.18
2023-04-15T16:08:48.994Z,20.15
2023-04-15T16:11:15.713Z,20.21
2023-04-15T16:13:42.311Z,20.03
2023-04-15T16:16:08.965Z,20.22
2023-04-15T16:18:35.653Z,19.53
2023-04-15T16:21:02.426Z,19.94
2023-04-15T16:23:29.021Z,19.87
2023-04-15T16:25:55.889Z,19.74
2023-04-15T16:28:26.990Z,19.85
2023-04-15T16:30:54.703Z,19.72
2023-04-15T16:33:21.388Z,19.38
2023-04-15T16:35:48.116Z,19.00
2023-04-15T16:38:14.720Z,19.32
2023-04-15T16:40:42.691Z,19.16
2023-04-15T16:43:11.318Z,19.09
2023-04-15T16:45:38.256Z,19.08
2023-04-15T16:48:05.196Z,18.85
2023-04-15T16:50:31.958Z,18.74
2023-04-15T16:52:58.536Z,18.87
2023-04-15T16:55:25.397Z,18.77
2023-04-15T16:58:01.485Z,18.64
2023-04-15T17:00:31.822Z,18.49
2023-04-15T17:02:59.343Z,18.04
2023-04-15T17:05:27.655Z,18.27
2023-04-15T17:07:54.585Z,18.15
2023-04-15T17:10:21.259Z,18.13
2023-04-15T17:12:47.883Z,17.99
2023-04-15T17:15:14.456Z,17.68
2023-04-15T17:17:41.114Z,17.78
2023-04-15T17:20:08.061Z,17.65
2023-04-15T17:22:34.779Z,17.54
2023-04-15T17:25:01.459Z,17.42
2023-04-15T17:27:28.993Z,17.32
2023-04-15T17:29:56.212Z,17.08
2023-04-15T17:32:23.720Z,17.07
2023-04-15T17:34:51.315Z,16.73
2023-04-15T17:37:18.603Z,16.50
2023-04-15T17:39:45.449Z,16.52
2023-04-15T17:42:12.461Z,16.81
2023-04-15T17:44:39.173Z,16.70
2023-04-15T17:47:05.833Z,16.71
2023-04-15T17:49:34.224Z,16.72
2023-04-15T17:52:01.325Z,16.48
2023-04-15T17:54:28.071Z,16.61
2023-04-15T17:56:54.812Z,15.89
2023-04-15T17:59:21.584Z,16.23
2023-04-15T18:01:48.336Z,16.45
2023-04-15T18:04:17.148Z,15.70
2023-04-15T18:06:43.838Z,16.16
2023-04-15T18:09:10.485Z,16.19
2023-04-15T18:11:39.052Z,16.24
2023-04-15T18:14:05.993Z,16.18
2023-04-15T18:16:32.778Z,16.15
2023-04-15T18:18:59.633Z,16.00
2023-04-15T18:21:27.149Z,15.67
2023-04-15T18:23:53.748Z,15.74
2023-04-15T18:26:21.641Z,16.05
2023-04-15T18:28:48.310Z,16.05
2023-04-15T18:31:14.920Z,16.07
2023-04-15T18:33:41.553Z,16.02
2023-04-15T18:36:08.226Z,15.98
2023-04-15T18:38:34.806Z,15.15
2023-04-15T18:41:04.080Z,15.47
2023-04-15T18:43:30.812Z,15.78
2023-04-15T18:45:57.469Z,15.57
2023-04-15T18:48:26.124Z,15.88
2023-04-15T18:50:54.121Z,15.77
2023-04-15T18:53:21.518Z,15.56
2023-04-15T18:55:48.343Z,15.30
2023-04-15T18:58:15.188Z,15.49
2023-04-15T19:00:43.792Z,15.54
2023-04-15T19:03:11.739Z,15.57
2023-04-15T19:05:38.611Z,15.58
2023-04-15T19:08:05.604Z,15.59
2023-04-15T19:10:33.878Z,15.55
2023-04-15T19:13:00.504Z,15.48
2023-04-15T19:15:27.106Z,15.48
2023-04-15T19:17:53.716Z,15.54
2023-04-15T19:20:20.443Z,15.53
2023-04-15T19:22:47.494Z,15.47
2023-04-15T19:25:14.303Z,15.54
2023-04-15T19:27:40.856Z,15.09
2023-04-15T19:30:08.351Z,15.40
2023-04-15T19:32:36.053Z,15.25
2023-04-15T19:35:02.891Z,14.89
2023-04-15T19:37:29.482Z,15.19
2023-04-15T19:39:56.331Z,15.10
2023-04-15T19:42:22.976Z,15.11
2023-04-15T19:44:49.663Z,15.03
2023-04-15T19:47:16.606Z,14.93
2023-04-15T19:49:43.482Z,14.47
2023-04-15T19:52:10.095Z,14.49
2023-04-15T19:54:37.002Z,14.78
2023-04-15T19:57:03.665Z,14.80
2023-04-15T19:59:30.331Z,14.80
2023-04-15T20:01:57.329Z,14.71
2023-04-15T20:04:24.048Z,14.62
2023-04-15T20:06:50.820Z,14.30
2023-04-15T20:09:17.556Z,14.54
2023-04-15T20:12:09.546Z,14.36
2023-04-15T20:14:30.999Z,14.36
2023-04-15T20:16:57.592Z,14.38
2023-04-15T20:19:24.193Z,13.68
2023-04-15T20:21:52.496Z,14.08
2023-04-15T20:24:20.421Z,14.11
2023-04-15T20:26:47.423Z,13.68
2023-04-15T20:29:14.181Z,14.00
2023-04-15T20:31:41.250Z,13.96
2023-04-15T20:34:09.962Z,13.79
2023-04-15T20:36:38.032Z,13.89
2023-04-15T20:39:04.743Z,13.65
2023-04-15T20:41:31.499Z,13.83
2023-04-15T20:43:58.088Z,13.66
2023-04-15T20:46:26.617Z,13.55
2023-04-15T20:48:54.163Z,13.48
2023-04-15T20:51:20.810Z,12.97
2023-04-15T20:53:47.381Z,13.23
2023-04-15T20:56:13.967Z,13.11
2023-04-15T20:58:41.264Z,13.22
2023-04-15T21:01:07.978Z,13.21
2023-04-15T21:03:34.958Z,12.86
2023-04-15T21:06:01.687Z,12.67
2023-04-15T21:08:31.937Z,13.09
2023-04-15T21:10:58.617Z,13.15
2023-04-15T21:13:25.285Z,13.15
2023-04-15T21:15:54.150Z,13.14
2023-04-15T21:18:22.000Z,10.87
2023-04-15T21:21:01.941Z,13.11
2023-04-15T21:23:29.886Z,12.93
2023-04-15T21:25:57.372Z,13.00
2023-04-15T21:28:23.936Z,13.06
2023-04-15T21:30:50.786Z,13.09
2023-04-15T21:33:20.270Z,12.77
2023-04-15T21:35:46.889Z,13.05
2023-04-15T21:38:13.721Z,13.04
2023-04-15T21:40:40.850Z,12.89
2023-04-15T21:43:08.020Z,12.84
2023-04-15T21:45:35.445Z,12.94
2023-04-15T21:48:08.017Z,12.86
2023-04-15T21:50:36.843Z,12.41
2023-04-15T21:53:04.484Z,12.75
2023-04-15T21:55:31.037Z,12.77
2023-04-15T21:57:57.565Z,12.78
2023-04-15T22:00:24.290Z,12.36
2023-04-15T22:02:51.576Z,12.70
2023-04-15T22:05:18.353Z,12.76
2023-04-15T22:07:44.930Z,12.76
2023-04-15T22:10:11.828Z,12.68
2023-04-15T22:12:41.879Z,12.28
2023-04-15T22:15:09.022Z,12.47
2023-04-15T22:17:35.711Z,12.36
2023-04-15T22:20:03.262Z,12.11
2023-04-15T22:22:43.433Z,11.93
2023-04-15T22:25:11.409Z,11.91
2023-04-15T22:27:38.044Z,11.44
2023-04-15T22:30:05.189Z,11.69
2023-04-15T22:32:31.838Z,11.64
2023-04-15T22:34:58.489Z,11.55
2023-04-15T22:37:25.175Z,11.44
2023-04-15T22:39:52.013Z,11.32
2023-04-15T22:42:18.584Z,11.17
2023-04-15T22:44:45.191Z,10.94
2023-04-15T22:47:11.782Z,11.06
2023-04-15T22:49:39.481Z,10.66
2023-04-15T22:52:06.135Z,10.62
2023-04-15T22:54:33.795Z,10.59
2023-04-15T22:57:01.089Z,10.70
2023-04-15T22:59:27.723Z,10.60
2023-04-15T23:01:54.687Z,10.65
2023-04-15T23:04:23.365Z,10.61
2023-04-15T23:06:52.639Z,10.58
2023-04-15T23:09:19.232Z,10.47
2023-04-15T23:11:45.809Z,10.18
2023-04-15T23:14:12.392Z,10.61
2023-04-15T23:16:39.002Z,10.41
2023-04-15T23:19:05.707Z,10.40
2023-04-15T23:21:32.413Z,10.18
2023-04-15T23:23:58.982Z,10.01
2023-04-15T23:26:27.290Z,10.12
2023-04-15T23:28:53.944Z,10.11
2023-04-15T23:31:20.577Z,9.91
2023-04-15T23:33:47.167Z,10.09
2023-04-15T23:36:13.834Z,10.14
2023-04-15T23:38:40.527Z,10.24
2023-04-15T23:41:07.066Z,10.23
2023-04-15T23:43:33.663Z,9.78
2023-04-15T23:46:00.314Z,9.80
2023-04-15T23:48:26.971Z,10.08
2023-04-15T23:50:53.546Z,9.98
2023-04-15T23:53:20.212Z,9.79
2023-04-15T23:55:46.799Z,9.38
2023-04-15T23:58:13.404Z,9.65
